createdAt,value
2023-02-01T00:00:36.415Z,5.28
2023-02-01T00:01:36.369Z,5.34
2023-02-01T00:02:36.412Z,5.36
2023-02-01T00:03:36.373Z,5.37
2023-02-01T00:04:36.336Z,5.38
2023-02-01T00:05:36.352Z,5.40
2023-02-01T00:06:36.292Z,5.40
2023-02-01T00:07:36.295Z,5.41
2023-02-01T00:08:36.271Z,5.44
2023-02-01T00:09:36.281Z,5.46
2023-02-01T00:10:36.255Z,5.49
2023-02-01T00:11:36.235Z,5.47
2023-02-01T00:12:36.226Z,5.46
2023-02-01T00:13:36.216Z,5.46
2023-02-01T00:14:36.201Z,5.44
2023-02-01T00:15:36.213Z,5.46
2023-02-01T00:16:36.198Z,5.46
2023-02-01T00:17:36.247Z,5.46
2023-02-01T00:18:36.144Z,5.46
2023-02-01T00:19:36.143Z,5.46
2023-02-01T00:20:36.172Z,5.43
2023-02-01T00:21:36.131Z,5.40
2023-02-01T00:22:36.164Z,5.38
2023-02-01T00:23:36.093Z,5.36
2023-02-01T00:24:36.072Z,5.34
2023-02-01T00:25:36.072Z,5.34
2023-02-01T00:26:36.083Z,5.33
2023-02-01T00:27:36.035Z,5.33
2023-02-01T00:28:36.066Z,5.33
2023-02-01T00:29:36.001Z,5.29
2023-02-01T00:30:36.035Z,5.31
2023-02-01T00:31:36.100Z,5.28
2023-02-01T00:32:35.959Z,5.28
2023-02-01T00:33:35.981Z,5.26
2023-02-01T00:34:35.944Z,5.26
2023-02-01T00:35:35.951Z,5.26
2023-02-01T00:36:35.915Z,5.25
2023-02-01T00:37:35.901Z,5.25
2023-02-01T00:38:35.890Z,5.25
2023-02-01T00:39:35.914Z,5.26
2023-02-01T00:40:35.969Z,5.28
2023-02-01T00:41:35.852Z,5.29
2023-02-01T00:42:35.847Z,5.36
2023-02-01T00:43:35.823Z,5.38
2023-02-01T00:44:35.809Z,5.41
2023-02-01T00:45:35.885Z,5.44
2023-02-01T00:46:35.812Z,5.47
2023-02-01T00:47:35.775Z,5.51
2023-02-01T00:48:35.760Z,5.52
2023-02-01T00:49:35.754Z,5.54
2023-02-01T00:50:35.762Z,5.55
2023-02-01T00:51:35.727Z,5.54
2023-02-01T00:52:35.724Z,5.55
2023-02-01T00:53:35.700Z,5.55
2023-02-01T00:54:35.710Z,5.52
2023-02-01T00:55:35.690Z,5.51
2023-02-01T00:56:35.663Z,5.52
2023-02-01T00:57:35.691Z,5.52
2023-02-01T00:58:35.638Z,5.54
2023-02-01T00:59:35.622Z,5.55
2023-02-01T01:00:35.649Z,5.58
2023-02-01T01:01:42.901Z,5.58
2023-02-01T01:02:35.580Z,5.61
2023-02-01T01:03:35.621Z,5.64
2023-02-01T01:04:35.549Z,5.62
2023-02-01T01:05:35.569Z,5.59
2023-02-01T01:06:35.530Z,5.55
2023-02-01T01:07:35.527Z,5.56
2023-02-01T01:08:35.510Z,5.56
2023-02-01T01:09:35.490Z,5.56
2023-02-01T01:10:35.504Z,5.58
2023-02-01T01:11:35.466Z,5.59
2023-02-01T01:12:35.455Z,5.61
2023-02-01T01:13:35.446Z,5.64
2023-02-01T01:14:35.447Z,5.64
2023-02-01T01:15:35.427Z,5.65
2023-02-01T01:16:35.408Z,5.65
2023-02-01T01:17:35.379Z,5.64
2023-02-01T01:18:35.392Z,5.67
2023-02-01T01:19:35.359Z,5.70
2023-02-01T01:20:35.372Z,5.72
2023-02-01T01:21:35.340Z,5.70
2023-02-01T01:22:35.326Z,5.72
2023-02-01T01:23:35.321Z,5.70
2023-02-01T01:24:35.297Z,5.73
2023-02-01T01:25:35.298Z,5.73
2023-02-01T01:26:35.311Z,5.74
2023-02-01T01:27:35.289Z,5.77
2023-02-01T01:28:35.252Z,5.79
2023-02-01T01:29:35.226Z,5.79
2023-02-01T01:30:35.369Z,5.80
2023-02-01T01:31:35.228Z,5.77
2023-02-01T01:32:35.187Z,5.79
2023-02-01T01:33:35.177Z,5.79
2023-02-01T01:34:35.167Z,5.79
2023-02-01T01:35:35.156Z,5.80
2023-02-01T01:36:35.139Z,5.77
2023-02-01T01:37:35.127Z,5.80
2023-02-01T01:38:35.117Z,5.81
2023-02-01T01:39:35.107Z,5.80
2023-02-01T01:40:35.122Z,5.77
2023-02-01T01:41:35.075Z,5.77
2023-02-01T01:42:35.074Z,5.76
2023-02-01T01:43:35.059Z,5.77
2023-02-01T01:44:35.061Z,5.76
2023-02-01T01:45:35.051Z,5.79
2023-02-01T01:46:35.095Z,5.79
2023-02-01T01:47:35.010Z,5.83
2023-02-01T01:48:34.997Z,5.84
2023-02-01T01:49:34.977Z,5.88
2023-02-01T01:50:35.003Z,5.90
2023-02-01T01:51:34.949Z,5.90
2023-02-01T01:52:34.939Z,5.91
2023-02-01T01:53:34.939Z,5.92
2023-02-01T01:54:34.926Z,5.91
2023-02-01T01:55:34.988Z,5.92
2023-02-01T01:56:34.887Z,5.90
2023-02-01T01:57:34.877Z,5.90
2023-02-01T01:58:34.861Z,5.87
2023-02-01T01:59:34.853Z,5.84
2023-02-01T02:00:34.870Z,5.83
2023-02-01T02:01:34.826Z,5.84
2023-02-01T02:02:34.811Z,5.83
2023-02-01T02:03:34.798Z,5.84
2023-02-01T02:04:34.803Z,5.84
2023-02-01T02:05:34.784Z,5.83
2023-02-01T02:06:34.778Z,5.87
2023-02-01T02:08:10.727Z,5.84
2023-02-01T02:09:10.719Z,5.83
2023-02-01T02:10:10.697Z,5.83
2023-02-01T02:11:10.711Z,5.83
2023-02-01T02:12:10.675Z,5.81
2023-02-01T02:13:10.666Z,5.80
2023-02-01T02:14:10.639Z,5.77
2023-02-01T02:15:10.646Z,5.74
2023-02-01T02:16:10.664Z,5.73
2023-02-01T02:17:10.606Z,5.72
2023-02-01T02:18:10.593Z,5.70
2023-02-01T02:19:10.593Z,5.73
2023-02-01T02:20:10.726Z,5.67
2023-02-01T02:21:10.576Z,5.67
2023-02-01T02:22:10.526Z,5.69
2023-02-01T02:23:10.536Z,5.69
2023-02-01T02:24:10.511Z,5.69
2023-02-01T02:25:10.509Z,5.69
2023-02-01T02:26:10.516Z,5.69
2023-02-01T02:27:10.475Z,5.70
2023-02-01T02:28:10.463Z,5.70
2023-02-01T02:29:10.455Z,5.72
2023-02-01T02:30:10.434Z,5.72
2023-02-01T02:31:10.430Z,5.72
2023-02-01T02:32:10.433Z,5.73
2023-02-01T02:33:10.406Z,5.72
2023-02-01T02:34:10.384Z,5.73
2023-02-01T02:35:10.392Z,5.73
2023-02-01T02:36:10.366Z,5.72
2023-02-01T02:37:10.376Z,5.73
2023-02-01T02:38:10.335Z,5.73
2023-02-01T02:39:10.324Z,5.72
2023-02-01T02:40:10.323Z,5.73
2023-02-01T02:41:10.295Z,5.74
2023-02-01T02:42:10.296Z,5.74
2023-02-01T02:43:10.282Z,5.79
2023-02-01T02:44:10.264Z,5.79
2023-02-01T02:45:10.263Z,5.80
2023-02-01T02:46:10.314Z,5.81
2023-02-01T02:47:10.265Z,5.83
2023-02-01T02:48:10.221Z,5.84
2023-02-01T02:49:10.197Z,5.87
2023-02-01T02:50:10.185Z,5.87
2023-02-01T02:51:10.170Z,5.87
2023-02-01T02:52:10.181Z,5.87
2023-02-01T02:53:10.146Z,5.87
2023-02-01T02:54:10.124Z,5.87
2023-02-01T02:55:10.117Z,5.87
2023-02-01T02:56:10.172Z,5.88
2023-02-01T02:57:10.118Z,5.91
2023-02-01T02:58:10.074Z,5.91
2023-02-01T02:59:10.067Z,5.91
2023-02-01T03:00:10.042Z,5.91
2023-02-01T03:01:10.069Z,5.91
2023-02-01T03:02:10.061Z,5.92
2023-02-01T03:03:10.015Z,5.92
2023-02-01T03:04:10.190Z,5.91
2023-02-01T03:05:09.988Z,5.90
2023-02-01T03:06:09.978Z,5.91
2023-02-01T03:07:09.990Z,5.90
2023-02-01T03:08:09.943Z,5.90
2023-02-01T03:09:09.935Z,5.90
2023-02-01T03:10:09.928Z,5.90
2023-02-01T03:11:09.914Z,5.87
2023-02-01T03:12:09.915Z,5.84
2023-02-01T03:13:09.884Z,5.84
2023-02-01T03:14:09.872Z,5.81
2023-02-01T03:15:09.854Z,5.83
2023-02-01T03:16:09.909Z,5.83
2023-02-01T03:17:09.849Z,5.83
2023-02-01T03:18:09.813Z,5.83
2023-02-01T03:19:09.810Z,5.88
2023-02-01T03:20:09.795Z,5.90
2023-02-01T03:21:09.784Z,5.88
2023-02-01T03:22:09.767Z,5.90
2023-02-01T03:23:09.776Z,5.92
2023-02-01T03:24:09.748Z,5.92
2023-02-01T03:25:09.735Z,5.92
2023-02-01T03:26:09.705Z,5.92
2023-02-01T03:27:09.704Z,5.91
2023-02-01T03:28:09.705Z,5.91
2023-02-01T03:29:09.676Z,5.91
2023-02-01T03:30:09.664Z,5.91
2023-02-01T03:31:09.665Z,5.92
2023-02-01T03:32:09.644Z,5.91
2023-02-01T03:33:09.754Z,5.91
2023-02-01T03:34:09.616Z,5.91
2023-02-01T03:35:09.610Z,5.88
2023-02-01T03:36:09.584Z,5.88
2023-02-01T03:37:09.671Z,5.90
2023-02-01T03:38:09.582Z,5.91
2023-02-01T03:39:09.554Z,5.92
2023-02-01T03:40:09.536Z,5.90
2023-02-01T03:41:09.528Z,5.92
2023-02-01T03:42:09.513Z,5.88
2023-02-01T03:43:09.515Z,5.88
2023-02-01T03:44:09.482Z,5.88
2023-02-01T03:45:09.474Z,5.91
2023-02-01T03:46:09.499Z,5.91
2023-02-01T03:47:09.473Z,5.94
2023-02-01T03:48:09.452Z,5.94
2023-02-01T03:49:09.424Z,5.94
2023-02-01T03:50:09.409Z,5.95
2023-02-01T03:51:09.401Z,5.95
2023-02-01T03:52:09.418Z,5.92
2023-02-01T03:53:09.393Z,5.92
2023-02-01T03:54:09.355Z,5.91
2023-02-01T03:55:09.344Z,5.87
2023-02-01T03:56:09.339Z,5.90
2023-02-01T03:57:09.334Z,5.88
2023-02-01T03:58:09.325Z,5.90
2023-02-01T03:59:09.293Z,5.91
2023-02-01T04:00:09.289Z,5.88
2023-02-01T04:01:09.304Z,5.90
2023-02-01T04:02:09.264Z,5.88
2023-02-01T04:03:09.264Z,5.90
2023-02-01T04:04:09.235Z,5.90
2023-02-01T04:05:09.223Z,5.88
2023-02-01T04:06:09.211Z,5.87
2023-02-01T04:07:09.233Z,5.84
2023-02-01T04:08:09.204Z,5.83
2023-02-01T04:09:09.201Z,5.87
2023-02-01T04:10:09.156Z,5.87
2023-02-01T04:11:09.135Z,5.88
2023-02-01T04:12:09.132Z,5.91
2023-02-01T04:13:09.141Z,5.94
2023-02-01T04:14:09.102Z,5.94
2023-02-01T04:15:09.094Z,5.95
2023-02-01T04:16:09.073Z,5.95
2023-02-01T04:17:09.072Z,5.94
2023-02-01T04:18:09.101Z,5.94
2023-02-01T04:19:09.048Z,5.94
2023-02-01T04:20:09.024Z,5.91
2023-02-01T04:21:09.005Z,5.87
2023-02-01T04:22:09.011Z,5.84
2023-02-01T04:23:09.021Z,5.83
2023-02-01T04:24:08.974Z,5.83
2023-02-01T04:25:08.962Z,5.83
2023-02-01T04:26:08.953Z,5.84
2023-02-01T04:27:08.923Z,5.83
2023-02-01T04:28:08.921Z,5.84
2023-02-01T04:29:09.007Z,5.84
2023-02-01T04:30:08.885Z,5.87
2023-02-01T04:31:08.992Z,5.87
2023-02-01T04:32:08.875Z,5.88
2023-02-01T04:33:08.863Z,5.88
2023-02-01T04:34:08.862Z,5.88
2023-02-01T04:35:08.834Z,5.87
2023-02-01T04:36:08.813Z,5.90
2023-02-01T04:37:08.805Z,5.90
2023-02-01T04:38:08.794Z,5.88
2023-02-01T04:39:08.792Z,5.88
2023-02-01T04:40:08.777Z,5.90
2023-02-01T04:41:08.757Z,5.92
2023-02-01T04:42:08.751Z,5.91
2023-02-01T04:43:08.724Z,5.88
2023-02-01T04:44:08.734Z,5.91
2023-02-01T04:45:08.705Z,5.88
2023-02-01T04:46:08.716Z,5.84
2023-02-01T04:47:08.674Z,5.83
2023-02-01T04:48:08.663Z,5.83
2023-02-01T04:49:08.681Z,5.81
2023-02-01T04:50:08.654Z,5.83
2023-02-01T04:51:08.623Z,5.84
2023-02-01T04:52:08.623Z,5.83
2023-02-01T04:53:08.592Z,5.81
2023-02-01T04:54:08.604Z,5.77
2023-02-01T04:55:08.603Z,5.73
2023-02-01T04:56:08.565Z,5.65
2023-02-01T04:57:08.551Z,5.65
2023-02-01T04:58:08.541Z,5.65
2023-02-01T04:59:08.543Z,5.67
2023-02-01T05:00:08.520Z,5.65
2023-02-01T05:01:08.503Z,5.67
2023-02-01T05:02:08.482Z,5.67
2023-02-01T05:03:08.486Z,5.69
2023-02-01T05:04:08.482Z,5.70
2023-02-01T05:05:08.446Z,5.67
2023-02-01T05:06:08.452Z,5.67
2023-02-01T05:07:08.426Z,5.69
2023-02-01T05:08:08.425Z,5.69
2023-02-01T05:09:08.424Z,5.72
2023-02-01T05:10:08.384Z,5.72
2023-02-01T05:11:08.368Z,5.72
2023-02-01T05:12:08.360Z,5.73
2023-02-01T05:13:08.368Z,5.76
2023-02-01T05:14:08.361Z,5.77
2023-02-01T05:15:08.347Z,5.76
2023-02-01T05:16:08.360Z,5.76
2023-02-01T05:17:08.293Z,5.77
2023-02-01T05:18:08.287Z,5.77
2023-02-01T05:19:08.323Z,5.79
2023-02-01T05:20:08.311Z,5.79
2023-02-01T05:21:08.242Z,5.79
2023-02-01T05:22:08.231Z,5.77
2023-02-01T05:23:08.219Z,5.79
2023-02-01T05:24:08.244Z,5.79
2023-02-01T05:25:08.571Z,5.79
2023-02-01T05:26:08.183Z,5.77
2023-02-01T05:27:08.169Z,5.77
2023-02-01T05:28:08.161Z,5.79
2023-02-01T05:29:08.161Z,5.76
2023-02-01T05:30:08.132Z,5.76
2023-02-01T05:31:08.222Z,5.77
2023-02-01T05:32:21.221Z,5.77
2023-02-01T05:33:09.083Z,5.79
2023-02-01T05:34:08.103Z,5.80
2023-02-01T05:35:08.053Z,5.80
2023-02-01T05:36:08.051Z,5.80
2023-02-01T05:37:08.042Z,5.77
2023-02-01T05:38:08.036Z,5.76
2023-02-01T05:39:07.991Z,5.74
2023-02-01T05:40:08.020Z,5.73
2023-02-01T05:41:07.988Z,5.70
2023-02-01T05:42:07.976Z,5.70
2023-02-01T05:43:07.961Z,5.64
2023-02-01T05:44:07.953Z,5.62
2023-02-01T05:45:07.950Z,5.61
2023-02-01T05:46:07.943Z,5.58
2023-02-01T05:47:07.913Z,5.59
2023-02-01T05:48:07.907Z,5.58
2023-02-01T05:49:07.895Z,5.58
2023-02-01T05:50:07.894Z,5.61
2023-02-01T05:51:07.852Z,5.59
2023-02-01T05:52:07.855Z,5.59
2023-02-01T05:53:07.826Z,5.61
2023-02-01T05:54:07.821Z,5.64
2023-02-01T05:55:07.805Z,5.64
2023-02-01T05:56:07.794Z,5.65
2023-02-01T05:57:07.778Z,5.70
2023-02-01T05:58:07.761Z,5.72
2023-02-01T05:59:07.742Z,5.74
2023-02-01T06:00:07.765Z,5.73
2023-02-01T06:01:07.723Z,5.69
2023-02-01T06:02:07.720Z,5.69
2023-02-01T06:03:07.739Z,5.65
2023-02-01T06:04:07.806Z,5.65
2023-02-01T06:05:07.693Z,5.65
2023-02-01T06:06:07.670Z,5.67
2023-02-01T06:07:07.644Z,5.69
2023-02-01T06:08:07.642Z,5.67
2023-02-01T06:09:07.639Z,5.65
2023-02-01T06:10:07.659Z,5.62
2023-02-01T06:11:07.572Z,5.64
2023-02-01T06:12:07.581Z,5.64
2023-02-01T06:13:07.562Z,5.62
2023-02-01T06:14:07.561Z,5.61
2023-02-01T06:15:07.553Z,5.59
2023-02-01T06:16:07.665Z,5.58
2023-02-01T06:17:07.512Z,5.59
2023-02-01T06:18:07.503Z,6.62
2023-02-01T06:19:07.491Z,7.46
2023-02-01T06:20:07.486Z,8.09
2023-02-01T06:21:07.523Z,8.11
2023-02-01T06:22:07.444Z,7.91
2023-02-01T06:23:07.432Z,7.80
2023-02-01T06:24:07.431Z,7.56
2023-02-01T06:25:07.422Z,7.29
2023-02-01T06:26:07.403Z,7.11
2023-02-01T06:27:07.371Z,6.89
2023-02-01T06:28:07.369Z,6.70
2023-02-01T06:29:07.351Z,6.50
2023-02-01T06:30:07.393Z,6.35
2023-02-01T06:31:07.837Z,6.20
2023-02-01T06:32:07.331Z,6.09
2023-02-01T06:33:07.300Z,6.01
2023-02-01T06:34:07.306Z,5.91
2023-02-01T06:35:07.305Z,5.83
2023-02-01T06:36:07.271Z,5.79
2023-02-01T06:37:07.243Z,5.73
2023-02-01T06:38:07.241Z,5.72
2023-02-01T06:39:07.230Z,5.67
2023-02-01T06:40:07.239Z,5.65
2023-02-01T06:41:07.212Z,5.64
2023-02-01T06:42:07.199Z,5.64
2023-02-01T06:43:07.180Z,5.65
2023-02-01T06:44:07.172Z,5.65
2023-02-01T06:45:07.159Z,5.67
2023-02-01T06:46:07.173Z,5.69
2023-02-01T06:47:09.147Z,5.70
2023-02-01T06:48:07.119Z,5.67
2023-02-01T06:49:07.092Z,5.67
2023-02-01T06:50:07.081Z,5.69
2023-02-01T06:51:07.098Z,5.69
2023-02-01T06:52:07.071Z,5.69
2023-02-01T06:53:07.059Z,5.69
2023-02-01T06:54:07.040Z,5.70
2023-02-01T06:55:07.066Z,5.69
2023-02-01T06:56:07.030Z,5.67
2023-02-01T06:57:06.999Z,5.65
2023-02-01T06:58:07.008Z,5.62
2023-02-01T06:59:06.992Z,5.61
2023-02-01T07:00:06.994Z,5.59
2023-02-01T07:01:07.001Z,5.61
2023-02-01T07:02:14.129Z,5.61
2023-02-01T07:03:06.916Z,5.58
2023-02-01T07:04:06.908Z,5.58
2023-02-01T07:05:06.887Z,5.58
2023-02-01T07:06:06.896Z,5.61
2023-02-01T07:07:06.868Z,5.62
2023-02-01T07:08:06.860Z,5.62
2023-02-01T07:09:06.840Z,5.62
2023-02-01T07:10:06.833Z,5.59
2023-02-01T07:11:06.850Z,5.59
2023-02-01T07:12:06.807Z,5.58
2023-02-01T07:13:06.789Z,5.61
2023-02-01T07:14:06.767Z,5.61
2023-02-01T07:15:06.759Z,5.59
2023-02-01T07:16:06.828Z,5.61
2023-02-01T07:17:06.738Z,5.61
2023-02-01T07:18:06.730Z,5.59
2023-02-01T07:19:06.717Z,5.62
2023-02-01T07:20:07.704Z,5.62
2023-02-01T07:21:06.707Z,5.62
2023-02-01T07:22:06.676Z,5.65
2023-02-01T07:23:06.652Z,5.69
2023-02-01T07:24:06.653Z,5.70
2023-02-01T07:25:06.760Z,5.72
2023-02-01T07:26:06.666Z,5.72
2023-02-01T07:27:06.607Z,5.74
2023-02-01T07:28:06.597Z,5.76
2023-02-01T07:29:06.575Z,5.76
2023-02-01T07:30:06.567Z,5.74
2023-02-01T07:31:06.665Z,5.76
2023-02-01T07:32:06.556Z,5.76
2023-02-01T07:33:06.606Z,5.76
2023-02-01T07:34:06.531Z,5.72
2023-02-01T07:35:06.515Z,5.70
2023-02-01T07:36:06.520Z,5.70
2023-02-01T07:37:06.475Z,5.73
2023-02-01T07:38:06.466Z,5.74
2023-02-01T07:39:06.465Z,5.74
2023-02-01T07:40:06.445Z,5.77
2023-02-01T07:41:06.448Z,5.79
2023-02-01T07:42:06.407Z,5.80
2023-02-01T07:43:06.449Z,5.81
2023-02-01T07:44:06.417Z,5.84
2023-02-01T07:45:20.495Z,5.84
2023-02-01T07:46:07.469Z,5.87
2023-02-01T07:47:06.347Z,5.84
2023-02-01T07:48:06.348Z,5.88
2023-02-01T07:49:06.327Z,5.87
2023-02-01T07:50:06.318Z,5.84
2023-02-01T07:51:06.319Z,5.84
2023-02-01T07:52:06.296Z,5.88
2023-02-01T07:53:06.280Z,5.88
2023-02-01T07:54:06.287Z,5.91
2023-02-01T07:55:06.258Z,5.92
2023-02-01T07:56:06.256Z,5.95
2023-02-01T07:57:06.216Z,5.98
2023-02-01T07:58:06.230Z,5.99
2023-02-01T07:59:06.197Z,5.99
2023-02-01T08:00:06.196Z,6.01
2023-02-01T08:01:06.248Z,6.01
2023-02-01T08:02:06.183Z,5.99
2023-02-01T08:03:06.167Z,5.99
2023-02-01T08:04:06.137Z,5.99
2023-02-01T08:05:06.140Z,5.97
2023-02-01T08:06:06.142Z,5.98
2023-02-01T08:07:06.098Z,5.99
2023-02-01T08:08:06.093Z,6.02
2023-02-01T08:09:06.076Z,6.01
2023-02-01T08:10:06.068Z,6.02
2023-02-01T08:11:06.066Z,6.05
2023-02-01T08:12:06.036Z,6.02
2023-02-01T08:13:06.026Z,6.02
2023-02-01T08:14:06.013Z,6.02
2023-02-01T08:15:05.996Z,6.05
2023-02-01T08:16:06.061Z,6.05
2023-02-01T08:17:05.965Z,6.06
2023-02-01T08:18:05.972Z,6.06
2023-02-01T08:19:05.935Z,6.02
2023-02-01T08:20:05.935Z,6.07
2023-02-01T08:21:05.943Z,6.07
2023-02-01T08:22:05.894Z,6.07
2023-02-01T08:23:05.895Z,6.09
2023-02-01T08:24:05.884Z,6.09
2023-02-01T08:25:05.867Z,6.10
2023-02-01T08:26:05.854Z,6.09
2023-02-01T08:27:05.857Z,6.06
2023-02-01T08:28:05.826Z,6.06
2023-02-01T08:29:05.824Z,6.05
2023-02-01T08:30:05.824Z,6.06
2023-02-01T08:31:05.836Z,6.06
2023-02-01T08:32:05.845Z,6.07
2023-02-01T08:33:05.774Z,6.06
2023-02-01T08:34:05.760Z,6.05
2023-02-01T08:35:05.744Z,6.06
2023-02-01T08:36:05.715Z,6.05
2023-02-01T08:37:05.726Z,6.06
2023-02-01T08:38:05.713Z,6.07
2023-02-01T08:39:05.685Z,6.06
2023-02-01T08:40:05.676Z,6.06
2023-02-01T08:41:05.655Z,6.05
2023-02-01T08:42:05.655Z,6.05
2023-02-01T08:43:05.676Z,6.05
2023-02-01T08:44:05.615Z,6.05
2023-02-01T08:45:05.615Z,6.05
2023-02-01T08:46:05.639Z,6.05
2023-02-01T08:47:05.594Z,6.02
2023-02-01T08:48:05.587Z,6.02
2023-02-01T08:49:05.546Z,6.02
2023-02-01T08:50:05.537Z,6.02
2023-02-01T08:51:05.545Z,6.05
2023-02-01T08:52:10.728Z,6.06
2023-02-01T08:53:06.519Z,6.07
2023-02-01T08:54:05.515Z,6.07
2023-02-01T08:55:05.481Z,6.07
2023-02-01T08:56:05.468Z,6.06
2023-02-01T08:57:05.498Z,6.06
2023-02-01T08:58:05.436Z,6.07
2023-02-01T08:59:05.433Z,6.05
2023-02-01T09:00:05.436Z,6.05
2023-02-01T09:01:05.522Z,6.01
2023-02-01T09:02:05.413Z,6.01
2023-02-01T09:03:05.386Z,6.01
2023-02-01T09:04:05.404Z,6.02
2023-02-01T09:05:05.356Z,6.01
2023-02-01T09:06:05.350Z,6.02
2023-02-01T09:07:05.347Z,6.01
2023-02-01T09:08:05.304Z,6.02
2023-02-01T09:09:05.297Z,6.05
2023-02-01T09:10:05.280Z,6.05
2023-02-01T09:11:05.295Z,6.07
2023-02-01T09:12:05.282Z,6.09
2023-02-01T09:13:05.267Z,6.06
2023-02-01T09:14:05.234Z,6.06
2023-02-01T09:15:05.243Z,6.07
2023-02-01T09:16:05.291Z,6.06
2023-02-01T09:17:05.205Z,6.06
2023-02-01T09:18:05.179Z,6.02
2023-02-01T09:19:24.852Z,6.05
2023-02-01T09:20:06.148Z,6.02
2023-02-01T09:21:05.152Z,6.02
2023-02-01T09:22:05.148Z,6.02
2023-02-01T09:23:05.146Z,6.06
2023-02-01T09:24:05.097Z,6.09
2023-02-01T09:25:05.094Z,6.09
2023-02-01T09:26:05.075Z,6.12
2023-02-01T09:27:05.163Z,6.09
2023-02-01T09:28:05.046Z,6.10
2023-02-01T09:29:05.042Z,6.12
2023-02-01T09:30:05.024Z,6.13
2023-02-01T09:31:05.140Z,6.13
2023-02-01T09:32:05.325Z,6.13
2023-02-01T09:33:05.012Z,6.12
2023-02-01T09:34:05.019Z,6.15
2023-02-01T09:35:04.973Z,6.15
2023-02-01T09:36:04.944Z,6.15
2023-02-01T09:37:04.963Z,6.16
2023-02-01T09:38:04.917Z,6.20
2023-02-01T09:39:04.914Z,6.22
2023-02-01T09:40:04.893Z,6.22
2023-02-01T09:41:04.887Z,6.28
2023-02-01T09:42:04.885Z,6.29
2023-02-01T09:43:04.904Z,6.31
2023-02-01T09:44:04.845Z,6.31
2023-02-01T09:45:04.845Z,6.31
2023-02-01T09:46:04.861Z,6.32
2023-02-01T09:47:04.833Z,6.32
2023-02-01T09:48:04.796Z,6.31
2023-02-01T09:49:04.784Z,6.32
2023-02-01T09:50:04.765Z,6.34
2023-02-01T09:51:04.768Z,6.36
2023-02-01T09:52:04.756Z,6.35
2023-02-01T09:53:04.728Z,6.35
2023-02-01T09:54:04.719Z,6.35
2023-02-01T09:55:04.713Z,6.38
2023-02-01T09:56:04.711Z,6.36
2023-02-01T09:57:04.717Z,6.39
2023-02-01T09:58:04.680Z,6.39
2023-02-01T09:59:04.664Z,6.39
2023-02-01T10:00:04.633Z,6.39
2023-02-01T10:01:04.704Z,6.41
2023-02-01T10:02:04.673Z,6.43
2023-02-01T10:03:04.761Z,6.44
2023-02-01T10:04:04.640Z,6.43
2023-02-01T10:05:04.605Z,6.44
2023-02-01T10:06:04.571Z,6.44
2023-02-01T10:07:04.544Z,6.44
2023-02-01T10:08:04.563Z,6.46
2023-02-01T10:09:04.558Z,6.44
2023-02-01T10:10:04.557Z,6.49
2023-02-01T10:11:04.504Z,6.47
2023-02-01T10:12:04.490Z,6.49
2023-02-01T10:13:04.523Z,6.50
2023-02-01T10:14:04.473Z,6.52
2023-02-01T10:15:04.455Z,6.52
2023-02-01T10:16:04.534Z,6.49
2023-02-01T10:17:04.457Z,6.49
2023-02-01T10:18:04.436Z,6.49
2023-02-01T10:19:04.412Z,6.49
2023-02-01T10:20:04.403Z,6.47
2023-02-01T10:21:04.377Z,6.49
2023-02-01T10:22:04.369Z,6.47
2023-02-01T10:23:23.071Z,6.50
2023-02-01T10:24:16.070Z,6.49
2023-02-01T10:25:05.335Z,6.47
2023-02-01T10:26:04.304Z,6.50
2023-02-01T10:27:04.313Z,6.53
2023-02-01T10:28:04.292Z,6.52
2023-02-01T10:29:04.270Z,6.53
2023-02-01T10:30:04.279Z,6.50
2023-02-01T10:31:04.349Z,6.50
2023-02-01T10:32:04.253Z,6.52
2023-02-01T10:33:04.234Z,6.54
2023-02-01T10:34:04.229Z,6.53
2023-02-01T10:35:04.274Z,6.56
2023-02-01T10:36:04.198Z,6.56
2023-02-01T10:37:04.163Z,6.57
2023-02-01T10:38:04.174Z,6.56
2023-02-01T10:39:04.143Z,6.54
2023-02-01T10:40:04.123Z,6.56
2023-02-01T10:41:04.129Z,6.57
2023-02-01T10:42:04.134Z,6.57
2023-02-01T10:43:04.112Z,6.57
2023-02-01T10:44:04.069Z,6.62
2023-02-01T10:45:04.081Z,6.62
2023-02-01T10:46:04.125Z,6.62
2023-02-01T10:47:04.053Z,6.62
2023-02-01T10:48:04.034Z,6.65
2023-02-01T10:49:04.016Z,6.65
2023-02-01T10:50:03.990Z,6.64
2023-02-01T10:51:03.984Z,6.65
2023-02-01T10:52:03.971Z,6.65
2023-02-01T10:53:03.995Z,6.65
2023-02-01T10:54:03.957Z,6.67
2023-02-01T10:55:03.939Z,6.68
2023-02-01T10:56:03.914Z,6.68
2023-02-01T10:57:03.911Z,6.71
2023-02-01T10:58:03.902Z,6.72
2023-02-01T10:59:03.883Z,6.77
2023-02-01T11:00:03.868Z,6.75
2023-02-01T11:01:03.891Z,6.75
2023-02-01T11:02:03.953Z,6.74
2023-02-01T11:03:03.941Z,6.74
2023-02-01T11:04:03.812Z,6.74
2023-02-01T11:05:03.821Z,6.77
2023-02-01T11:06:03.783Z,6.77
2023-02-01T11:07:03.794Z,6.80
2023-02-01T11:08:03.789Z,6.77
2023-02-01T11:09:03.743Z,6.80
2023-02-01T11:10:03.725Z,6.83
2023-02-01T11:11:03.723Z,6.85
2023-02-01T11:12:03.712Z,6.86
2023-02-01T11:13:03.759Z,6.89
2023-02-01T11:14:03.704Z,6.87
2023-02-01T11:15:03.683Z,6.87
2023-02-01T11:16:03.676Z,6.85
2023-02-01T11:17:03.650Z,6.87
2023-02-01T11:18:03.621Z,6.86
2023-02-01T11:19:03.621Z,6.87
2023-02-01T11:20:03.614Z,6.90
2023-02-01T11:21:03.601Z,6.92
2023-02-01T11:22:03.588Z,6.90
2023-02-01T11:23:03.595Z,6.90
2023-02-01T11:24:03.587Z,6.89
2023-02-01T11:25:03.552Z,6.89
2023-02-01T11:26:03.537Z,6.90
2023-02-01T11:27:05.865Z,6.89
2023-02-01T11:28:03.542Z,6.92
2023-02-01T11:29:03.525Z,6.93
2023-02-01T11:30:03.471Z,6.96
2023-02-01T11:31:03.669Z,7.00
2023-02-01T11:32:03.464Z,7.07
2023-02-01T11:33:05.424Z,7.11
2023-02-01T11:34:03.441Z,7.18
2023-02-01T11:35:03.424Z,7.31
2023-02-01T11:36:03.401Z,7.39
2023-02-01T11:37:03.392Z,7.44
2023-02-01T11:38:03.370Z,7.50
2023-02-01T11:39:04.995Z,7.58
2023-02-01T11:40:03.364Z,7.70
2023-02-01T11:41:03.349Z,7.83
2023-02-01T11:42:03.358Z,7.91
2023-02-01T11:43:03.316Z,7.96
2023-02-01T11:44:03.305Z,7.95
2023-02-01T11:45:05.105Z,7.95
2023-02-01T11:46:03.305Z,7.91
2023-02-01T11:47:03.250Z,7.99
2023-02-01T11:48:03.258Z,7.91
2023-02-01T11:49:03.243Z,7.85
2023-02-01T11:50:03.204Z,7.83
2023-02-01T11:51:05.584Z,7.90
2023-02-01T11:52:03.192Z,8.01
2023-02-01T11:53:03.286Z,8.11
2023-02-01T11:54:03.209Z,8.17
2023-02-01T11:55:03.172Z,8.24
2023-02-01T11:56:03.181Z,8.28
2023-02-01T11:57:05.650Z,8.27
2023-02-01T11:58:03.110Z,8.27
2023-02-01T11:59:03.122Z,8.27
2023-02-01T12:00:03.104Z,8.23
2023-02-01T12:01:03.081Z,8.23
2023-02-01T12:02:03.153Z,8.26
2023-02-01T12:03:03.169Z,8.26
2023-02-01T12:04:03.063Z,8.24
2023-02-01T12:05:03.071Z,8.23
2023-02-01T12:06:03.011Z,8.27
2023-02-01T12:07:03.004Z,8.31
2023-02-01T12:08:02.992Z,8.31
2023-02-01T12:09:02.991Z,8.31
2023-02-01T12:10:02.986Z,8.27
2023-02-01T12:11:03.031Z,8.16
2023-02-01T12:12:02.930Z,8.16
2023-02-01T12:13:02.935Z,8.14
2023-02-01T12:14:02.913Z,8.11
2023-02-01T12:15:02.973Z,8.08
2023-02-01T12:16:02.969Z,8.03
2023-02-01T12:17:02.888Z,8.03
2023-02-01T12:18:02.853Z,8.02
2023-02-01T12:19:02.839Z,7.99
2023-02-01T12:20:02.861Z,7.93
2023-02-01T12:21:02.811Z,7.91
2023-02-01T12:22:02.792Z,7.93
2023-02-01T12:23:02.783Z,7.96
2023-02-01T12:24:02.776Z,8.02
2023-02-01T12:25:02.788Z,8.03
2023-02-01T12:26:02.753Z,8.11
2023-02-01T12:27:02.730Z,8.16
2023-02-01T12:28:02.723Z,8.16
2023-02-01T12:29:02.720Z,8.16
2023-02-01T12:30:02.725Z,8.17
2023-02-01T12:31:02.723Z,8.17
2023-02-01T12:32:02.651Z,8.18
2023-02-01T12:33:02.672Z,8.18
2023-02-01T12:34:02.675Z,8.17
2023-02-01T12:35:02.651Z,8.11
2023-02-01T12:36:02.611Z,8.09
2023-02-01T12:37:02.610Z,8.08
2023-02-01T12:38:02.596Z,7.99
2023-02-01T12:39:02.578Z,7.99
2023-02-01T12:40:02.568Z,7.99
2023-02-01T12:41:02.542Z,7.99
2023-02-01T12:42:02.542Z,8.01
2023-02-01T12:43:02.603Z,7.99
2023-02-01T12:44:02.521Z,8.02
2023-02-01T12:45:02.496Z,8.09
2023-02-01T12:46:02.495Z,8.16
2023-02-01T12:47:02.508Z,8.20
2023-02-01T12:48:02.442Z,8.18
2023-02-01T12:49:02.455Z,8.11
2023-02-01T12:50:02.416Z,8.06
2023-02-01T12:51:02.402Z,8.09
2023-02-01T12:52:02.407Z,8.16
2023-02-01T12:53:02.390Z,8.16
2023-02-01T12:54:02.382Z,8.11
2023-02-01T12:55:02.440Z,8.14
2023-02-01T12:56:02.341Z,8.16
2023-02-01T12:57:02.343Z,8.11
2023-02-01T12:58:02.318Z,8.01
2023-02-01T12:59:02.345Z,7.93
2023-02-01T13:00:02.315Z,7.90
2023-02-01T13:01:02.309Z,7.84
2023-02-01T13:02:02.274Z,7.78
2023-02-01T13:03:02.264Z,7.70
2023-02-01T13:04:09.608Z,7.69
2023-02-01T13:05:02.265Z,7.69
2023-02-01T13:06:02.225Z,7.59
2023-02-01T13:07:02.187Z,7.58
2023-02-01T13:08:02.199Z,7.56
2023-02-01T13:09:02.170Z,7.58
2023-02-01T13:10:02.182Z,7.55
2023-02-01T13:11:02.137Z,7.47
2023-02-01T13:12:02.124Z,7.48
2023-02-01T13:13:02.111Z,7.50
2023-02-01T13:14:02.115Z,7.48
2023-02-01T13:15:02.083Z,7.48
2023-02-01T13:16:02.063Z,7.48
2023-02-01T13:17:02.164Z,7.47
2023-02-01T13:18:02.047Z,7.47
2023-02-01T13:19:02.030Z,7.44